createdAt,value
2022-08-07T00:00:24.264Z,16.71
2022-08-07T00:02:51.297Z,16.68
2022-08-07T00:05:21.137Z,16.61
2022-08-07T00:07:59.678Z,16.54
2022-08-07T00:10:30.545Z,16.50
2022-08-07T00:13:09.754Z,16.47
2022-08-07T00:15:51.009Z,16.37
2022-08-07T00:18:24.383Z,16.35
2022-08-07T00:20:57.550Z,16.33
2022-08-07T00:23:31.215Z,16.29
2022-08-07T00:26:01.798Z,16.22
2022-08-07T00:28:34.538Z,16.13
2022-08-07T00:31:16.501Z,16.10
2022-08-07T00:33:47.417Z,16.10
2022-08-07T00:36:14.828Z,16.12
2022-08-07T00:38:43.618Z,16.12
2022-08-07T00:41:15.053Z,16.06
2022-08-07T00:44:00.754Z,16.01
2022-08-07T00:46:33.014Z,15.97
2022-08-07T00:49:03.795Z,15.92
2022-08-07T00:51:57.211Z,15.87
2022-08-07T00:54:19.829Z,15.80
2022-08-07T00:56:49.813Z,15.58
2022-08-07T00:59:17.811Z,15.61
2022-08-07T01:01:48.720Z,15.61
2022-08-07T01:04:24.820Z,15.60
2022-08-07T01:06:52.200Z,15.57
2022-08-07T01:10:05.182Z,15.54
2022-08-07T01:12:27.909Z,15.55
2022-08-07T01:15:01.296Z,15.50
2022-08-07T01:17:29.956Z,15.46
2022-08-07T01:20:05.419Z,15.44
2022-08-07T01:22:33.552Z,15.41
2022-08-07T01:25:01.113Z,15.31
2022-08-07T01:27:32.266Z,15.27
2022-08-07T01:30:00.680Z,15.21
2022-08-07T01:32:29.108Z,15.17
2022-08-07T01:34:56.387Z,15.12
2022-08-07T01:37:24.695Z,15.10
2022-08-07T01:39:52.305Z,15.10
2022-08-07T01:42:39.624Z,15.06
2022-08-07T01:45:15.860Z,15.03
2022-08-07T01:48:18.426Z,15.05
2022-08-07T01:50:33.850Z,15.01
2022-08-07T01:53:08.895Z,14.96
2022-08-07T01:56:02.951Z,14.94
2022-08-07T01:58:37.527Z,14.95
2022-08-07T02:01:25.324Z,14.90
2022-08-07T02:04:18.682Z,14.80
2022-08-07T02:06:46.566Z,14.73
2022-08-07T02:09:33.824Z,14.73
2022-08-07T02:12:17.953Z,14.67
2022-08-07T02:14:52.685Z,14.56
2022-08-07T02:17:27.701Z,14.54
2022-08-07T02:20:09.988Z,14.53
2022-08-07T02:22:47.396Z,14.50
2022-08-07T02:26:10.505Z,14.43
2022-08-07T02:28:14.513Z,14.36
2022-08-07T02:30:52.894Z,14.26
2022-08-07T02:33:20.509Z,14.18
2022-08-07T02:36:30.821Z,14.15
2022-08-07T02:38:39.214Z,14.14
2022-08-07T02:41:21.659Z,14.13
2022-08-07T02:43:49.609Z,14.10
2022-08-07T02:46:19.750Z,14.08
2022-08-07T02:48:54.672Z,14.07
2022-08-07T02:51:41.704Z,14.07
2022-08-07T02:54:13.226Z,14.07
2022-08-07T02:56:42.068Z,14.09
2022-08-07T02:59:11.764Z,14.08
2022-08-07T03:01:40.199Z,14.06
2022-08-07T03:04:12.778Z,13.99
2022-08-07T03:06:44.710Z,13.95
2022-08-07T03:09:13.977Z,13.95
2022-08-07T03:11:51.700Z,13.93
2022-08-07T03:14:20.233Z,13.91
2022-08-07T03:16:49.705Z,13.93
2022-08-07T03:19:20.047Z,13.90
2022-08-07T03:21:50.566Z,13.88
2022-08-07T03:24:26.886Z,13.86
2022-08-07T03:26:59.858Z,13.81
2022-08-07T03:29:33.954Z,13.78
2022-08-07T03:32:08.352Z,13.81
2022-08-07T03:34:47.426Z,13.80
2022-08-07T03:37:32.700Z,13.75
2022-08-07T03:40:15.699Z,13.73
2022-08-07T03:42:43.849Z,13.71
2022-08-07T03:45:12.310Z,13.75
2022-08-07T03:47:58.786Z,13.71
2022-08-07T03:50:25.923Z,13.53
2022-08-07T03:52:58.584Z,13.52
2022-08-07T03:55:52.833Z,13.52
2022-08-07T03:59:04.903Z,13.45
2022-08-07T04:01:01.356Z,13.41
2022-08-07T04:03:28.128Z,13.37
2022-08-07T04:06:37.238Z,13.35
2022-08-07T04:09:02.808Z,13.26
2022-08-07T04:12:21.355Z,13.21
2022-08-07T04:14:38.027Z,13.18
2022-08-07T04:17:19.777Z,13.20
2022-08-07T04:19:55.149Z,13.24
2022-08-07T04:22:29.479Z,13.24
2022-08-07T04:24:58.832Z,13.26
2022-08-07T04:27:29.077Z,13.22
2022-08-07T04:30:04.715Z,13.24
2022-08-07T04:32:38.039Z,13.21
2022-08-07T04:35:11.112Z,13.19
2022-08-07T04:37:52.852Z,13.15
2022-08-07T04:40:26.658Z,13.08
2022-08-07T04:43:01.577Z,13.07
2022-08-07T04:45:57.490Z,13.06
2022-08-07T04:48:27.996Z,13.06
2022-08-07T04:51:05.140Z,13.05
2022-08-07T04:54:05.395Z,13.07
2022-08-07T04:58:14.422Z,13.07
2022-08-07T05:00:30.154Z,13.06
2022-08-07T05:04:01.102Z,13.06
2022-08-07T05:06:25.103Z,13.08
2022-08-07T05:09:28.074Z,13.07
2022-08-07T05:12:15.471Z,13.07
2022-08-07T05:14:59.016Z,13.12
2022-08-07T05:17:52.345Z,13.16
2022-08-07T05:20:25.780Z,13.24
2022-08-07T05:22:57.033Z,13.32
2022-08-07T05:26:11.040Z,13.40
2022-08-07T05:28:19.923Z,13.43
2022-08-07T05:30:49.043Z,13.45
2022-08-07T05:33:18.154Z,13.47
2022-08-07T05:35:50.790Z,13.52
2022-08-07T05:39:01.046Z,13.53
2022-08-07T05:41:14.054Z,13.59
2022-08-07T05:44:07.629Z,13.61
2022-08-07T05:46:36.353Z,13.65
2022-08-07T05:49:11.790Z,13.69
2022-08-07T05:51:46.623Z,13.71
2022-08-07T05:54:31.211Z,13.69
2022-08-07T05:57:03.509Z,13.64
2022-08-07T05:59:38.991Z,13.61
2022-08-07T06:02:22.010Z,13.60
2022-08-07T06:04:59.839Z,13.65
2022-08-07T06:08:09.335Z,13.66
2022-08-07T06:10:15.936Z,13.72
2022-08-07T06:12:42.760Z,13.79
2022-08-07T06:15:15.196Z,13.83
2022-08-07T06:17:53.480Z,13.88
2022-08-07T06:20:25.485Z,13.94
2022-08-07T06:23:02.305Z,13.97
2022-08-07T06:25:54.601Z,14.06
2022-08-07T06:28:28.114Z,14.10
2022-08-07T06:30:56.316Z,14.14
2022-08-07T06:33:25.722Z,14.19
2022-08-07T06:36:12.856Z,14.27
2022-08-07T06:38:58.736Z,14.35
2022-08-07T06:42:19.476Z,14.42
2022-08-07T06:44:57.066Z,14.51
2022-08-07T06:47:24.643Z,14.59
2022-08-07T06:49:58.757Z,14.66
2022-08-07T06:52:35.711Z,14.73
2022-08-07T06:55:32.081Z,14.77
2022-08-07T06:57:59.915Z,14.83
2022-08-07T07:00:31.084Z,14.91
2022-08-07T07:03:01.027Z,14.98
2022-08-07T07:06:02.762Z,15.05
2022-08-07T07:08:30.094Z,15.11
2022-08-07T07:11:00.897Z,15.18
2022-08-07T07:13:55.723Z,15.28
2022-08-07T07:16:30.503Z,15.32
2022-08-07T07:19:54.626Z,15.42
2022-08-07T07:22:05.454Z,15.48
2022-08-07T07:25:03.118Z,15.58
2022-08-07T07:27:55.567Z,15.64
2022-08-07T07:30:38.064Z,15.71
2022-08-07T07:33:08.363Z,15.82
2022-08-07T07:35:44.144Z,15.88
2022-08-07T07:38:27.570Z,15.96
2022-08-07T07:41:02.728Z,16.04
2022-08-07T07:44:14.475Z,16.08
2022-08-07T07:46:36.936Z,16.18
2022-08-07T07:50:34.298Z,16.24
2022-08-07T07:52:01.515Z,16.31
2022-08-07T07:54:33.136Z,16.40
2022-08-07T07:57:04.978Z,16.45
2022-08-07T07:59:51.733Z,16.51
2022-08-07T08:02:33.763Z,16.57
2022-08-07T08:05:14.520Z,16.64
2022-08-07T08:07:59.535Z,16.66
2022-08-07T08:10:38.241Z,16.71
2022-08-07T08:13:10.676Z,16.78
2022-08-07T08:15:58.487Z,16.81
2022-08-07T08:18:28.382Z,16.89
2022-08-07T08:20:55.879Z,16.94
2022-08-07T08:23:42.933Z,16.99
2022-08-07T08:26:31.302Z,17.07
2022-08-07T08:29:01.242Z,17.12
2022-08-07T08:32:18.191Z,17.18
2022-08-07T08:34:27.300Z,17.26
2022-08-07T08:36:58.341Z,17.31
2022-08-07T08:39:39.299Z,17.34
2022-08-07T08:42:25.875Z,17.40
2022-08-07T08:45:18.832Z,17.46
2022-08-07T08:48:02.078Z,17.52
2022-08-07T08:50:49.305Z,17.56
2022-08-07T08:53:37.388Z,17.61
2022-08-07T08:56:31.228Z,17.69
2022-08-07T08:59:18.402Z,17.76
2022-08-07T09:02:35.134Z,17.79
2022-08-07T09:05:43.588Z,17.89
2022-08-07T09:09:13.417Z,17.95
2022-08-07T09:12:31.681Z,18.01
2022-08-07T09:16:25.455Z,18.08
2022-08-07T09:18:52.885Z,18.15
2022-08-07T09:21:58.127Z,18.23
2022-08-07T09:24:59.305Z,18.28
2022-08-07T09:28:00.297Z,18.31
2022-08-07T09:31:08.520Z,18.37
2022-08-07T09:34:11.772Z,18.42
2022-08-07T09:36:57.990Z,18.49
2022-08-07T09:39:54.696Z,18.56
2022-08-07T09:42:53.204Z,18.61
2022-08-07T09:47:51.765Z,18.68
2022-08-07T09:50:00.853Z,18.71
2022-08-07T09:52:34.515Z,18.78
2022-08-07T09:55:29.713Z,18.84
2022-08-07T09:58:31.895Z,18.91
2022-08-07T10:01:51.100Z,18.93
2022-08-07T10:04:53.105Z,18.96
2022-08-07T10:08:00.645Z,18.99
2022-08-07T10:11:59.705Z,19.03
2022-08-07T10:14:07.867Z,19.05
2022-08-07T10:17:00.913Z,19.10
2022-08-07T10:19:48.071Z,19.16
2022-08-07T10:23:09.655Z,19.19
2022-08-07T10:25:58.525Z,19.22
2022-08-07T10:28:58.439Z,19.34
2022-08-07T10:32:16.524Z,19.47
2022-08-07T10:35:14.897Z,19.62
2022-08-07T10:38:21.084Z,19.67
2022-08-07T10:41:46.444Z,19.74
2022-08-07T10:44:28.426Z,19.85
2022-08-07T10:47:26.975Z,19.95
2022-08-07T10:50:34.226Z,20.02
2022-08-07T10:53:13.335Z,20.10
2022-08-07T10:55:58.956Z,20.16
2022-08-07T10:58:59.574Z,20.20
2022-08-07T11:01:35.830Z,20.28
2022-08-07T11:04:38.138Z,20.34
2022-08-07T11:07:58.549Z,20.37
2022-08-07T11:10:57.812Z,20.43
2022-08-07T11:14:45.144Z,20.55
2022-08-07T11:17:02.208Z,20.64
2022-08-07T11:19:46.421Z,20.71
2022-08-07T11:22:26.386Z,20.78
2022-08-07T11:24:53.998Z,20.83
2022-08-07T11:28:02.554Z,20.85
2022-08-07T11:30:41.553Z,20.93
2022-08-07T11:33:59.242Z,20.99
2022-08-07T11:36:30.952Z,21.08
2022-08-07T11:39:03.835Z,21.13
2022-08-07T11:42:01.571Z,21.20
2022-08-07T11:44:36.672Z,21.25
2022-08-07T11:47:30.407Z,21.30
2022-08-07T11:50:31.201Z,21.34
2022-08-07T11:53:10.021Z,21.47
2022-08-07T11:56:26.137Z,21.67
2022-08-07T12:02:52.763Z,22.04
2022-08-07T12:05:49.546Z,22.08
2022-08-07T12:08:38.477Z,22.17
2022-08-07T12:11:32.432Z,22.27
2022-08-07T12:14:11.374Z,22.32
2022-08-07T12:16:46.764Z,22.37
2022-08-07T12:19:21.827Z,22.45
2022-08-07T12:22:56.412Z,22.54
2022-08-07T12:26:03.391Z,22.60
2022-08-07T12:28:56.945Z,22.64
2022-08-07T12:31:53.016Z,22.63
2022-08-07T12:34:33.105Z,22.67
2022-08-07T12:37:01.568Z,22.75
2022-08-07T12:39:44.107Z,22.79
2022-08-07T12:42:27.135Z,22.84
2022-08-07T12:44:58.278Z,22.88
2022-08-07T12:47:32.904Z,22.92
2022-08-07T12:50:38.808Z,23.00
2022-08-07T12:53:18.120Z,23.05
2022-08-07T12:56:16.915Z,23.08
2022-08-07T12:58:46.887Z,23.13
2022-08-07T13:01:47.718Z,23.20
2022-08-07T13:04:44.157Z,23.25
2022-08-07T13:08:11.975Z,23.29
2022-08-07T13:10:55.819Z,23.35
2022-08-07T13:13:48.153Z,23.38
2022-08-07T13:16:13.091Z,23.43
2022-08-07T13:18:50.716Z,23.47
2022-08-07T13:21:50.178Z,23.50
2022-08-07T13:24:25.773Z,23.55
2022-08-07T13:27:10.992Z,23.59
2022-08-07T13:30:04.100Z,23.61
2022-08-07T13:32:45.767Z,23.64
2022-08-07T13:36:01.112Z,23.70
2022-08-07T13:38:55.867Z,23.79
2022-08-07T13:41:42.760Z,23.86
2022-08-07T13:44:26.098Z,23.93
2022-08-07T13:46:59.467Z,23.96
2022-08-07T13:50:32.841Z,23.97
2022-08-07T13:52:30.670Z,23.98
2022-08-07T13:55:07.497Z,24.02
2022-08-07T13:57:59.169Z,24.11
2022-08-07T14:00:50.472Z,24.25
2022-08-07T14:03:30.065Z,24.36
2022-08-07T14:06:13.059Z,24.40
2022-08-07T14:08:48.615Z,24.48
2022-08-07T14:11:23.683Z,24.52
2022-08-07T14:14:02.126Z,24.61
2022-08-07T14:16:36.489Z,24.71
2022-08-07T14:19:17.887Z,24.76
2022-08-07T14:22:11.451Z,24.83
2022-08-07T14:24:43.046Z,24.92
2022-08-07T14:28:11.084Z,25.01
2022-08-07T14:33:01.856Z,25.08
2022-08-07T14:35:34.477Z,25.09
2022-08-07T14:38:26.279Z,25.08
2022-08-07T14:41:01.276Z,25.18
2022-08-07T14:43:57.180Z,25.22
2022-08-07T14:46:30.604Z,25.24
2022-08-07T14:49:55.783Z,25.30
2022-08-07T14:54:49.146Z,25.36
2022-08-07T14:57:25.441Z,25.47
2022-08-07T15:00:29.689Z,25.58
2022-08-07T15:03:19.361Z,25.66
2022-08-07T15:08:54.529Z,25.68
2022-08-07T15:14:30.864Z,25.73
2022-08-07T15:17:04.295Z,25.77
2022-08-07T15:20:30.959Z,25.81
2022-08-07T15:22:31.360Z,25.86
2022-08-07T15:25:18.334Z,25.90
2022-08-07T15:31:05.152Z,26.07
2022-08-07T15:33:33.788Z,26.17
2022-08-07T15:36:06.230Z,26.28
2022-08-07T15:38:51.229Z,26.29
2022-08-07T15:42:45.245Z,26.39
2022-08-07T15:44:17.478Z,26.42
2022-08-07T15:46:52.582Z,26.45
2022-08-07T15:52:17.182Z,26.58
2022-08-07T15:54:50.861Z,26.72
2022-08-07T15:57:40.270Z,26.82
2022-08-07T16:00:32.214Z,26.84
2022-08-07T16:03:01.725Z,26.88
2022-08-07T16:05:31.296Z,26.91
2022-08-07T16:08:32.553Z,26.98
2022-08-07T16:11:26.798Z,27.04
2022-08-07T16:14:09.628Z,27.06
2022-08-07T16:17:15.150Z,27.09
2022-08-07T16:20:03.737Z,27.07
2022-08-07T16:22:55.269Z,27.15
2022-08-07T16:25:53.062Z,27.23
2022-08-07T16:30:08.294Z,27.32
2022-08-07T16:31:57.737Z,27.36
2022-08-07T16:34:31.140Z,27.40
2022-08-07T16:37:02.661Z,27.47
2022-08-07T16:40:28.315Z,27.58
2022-08-07T16:43:21.786Z,27.71
2022-08-07T16:47:06.487Z,27.75
2022-08-07T16:50:28.562Z,27.75
2022-08-07T16:52:50.649Z,27.74
2022-08-07T16:55:26.873Z,27.74
2022-08-07T16:58:48.016Z,27.80
2022-08-07T17:01:34.550Z,27.90
2022-08-07T17:04:07.762Z,27.99
2022-08-07T17:07:02.756Z,28.02
2022-08-07T17:10:07.888Z,27.98
2022-08-07T17:13:01.860Z,28.04
2022-08-07T17:15:51.721Z,28.14
2022-08-07T17:18:25.973Z,28.21
2022-08-07T17:20:54.065Z,28.26
2022-08-07T17:23:44.578Z,28.32
2022-08-07T17:26:29.979Z,28.37
2022-08-07T17:30:16.159Z,28.45
2022-08-07T17:32:52.746Z,28.46
2022-08-07T17:35:50.001Z,28.55
2022-08-07T17:38:33.934Z,28.65
2022-08-07T17:42:02.532Z,28.64
2022-08-07T17:44:49.922Z,28.55
2022-08-07T17:48:01.710Z,28.58
2022-08-07T17:50:54.362Z,28.61
2022-08-07T17:54:00.608Z,28.66
2022-08-07T17:56:31.662Z,28.72
2022-08-07T17:59:35.877Z,28.72
2022-08-07T18:02:17.694Z,28.79
2022-08-07T18:05:14.205Z,28.89
2022-08-07T18:08:03.352Z,28.99
2022-08-07T18:12:06.953Z,29.09
2022-08-07T18:13:51.432Z,29.14
2022-08-07T18:16:32.944Z,29.14
2022-08-07T18:21:04.028Z,29.14
2022-08-07T18:22:26.192Z,29.11
2022-08-07T18:25:19.309Z,29.03
2022-08-07T18:28:33.088Z,28.79
2022-08-07T18:31:33.913Z,28.51
2022-08-07T18:34:37.581Z,28.07
2022-08-07T18:38:55.110Z,27.81
2022-08-07T18:40:42.471Z,27.55
2022-08-07T18:43:48.883Z,27.32
2022-08-07T18:46:25.379Z,27.11
2022-08-07T18:50:19.275Z,26.98
2022-08-07T18:52:33.560Z,26.80
2022-08-07T18:55:43.212Z,26.63
2022-08-07T18:58:51.639Z,26.48
2022-08-07T19:02:32.137Z,26.46
2022-08-07T19:04:57.513Z,26.46
2022-08-07T19:07:52.018Z,26.39
2022-08-07T19:10:49.849Z,26.20
2022-08-07T19:13:25.646Z,26.13
2022-08-07T19:17:01.510Z,26.00
2022-08-07T19:19:31.620Z,25.80
2022-08-07T19:22:07.718Z,25.72
2022-08-07T19:24:53.072Z,25.60
2022-08-07T19:28:58.071Z,25.52
2022-08-07T19:31:04.298Z,25.37
2022-08-07T19:33:10.041Z,25.21
2022-08-07T19:35:42.182Z,25.14
2022-08-07T19:38:16.786Z,25.01
2022-08-07T19:40:50.530Z,24.92
2022-08-07T19:43:49.977Z,24.81
2022-08-07T19:46:26.622Z,24.69
2022-08-07T19:49:07.555Z,24.61
2022-08-07T19:51:51.701Z,24.55
2022-08-07T19:54:33.818Z,24.50
2022-08-07T19:58:02.615Z,24.43
2022-08-07T20:00:08.882Z,24.36
2022-08-07T20:02:52.231Z,24.32
2022-08-07T20:05:28.204Z,24.27
2022-08-07T20:08:10.131Z,24.18
2022-08-07T20:10:52.334Z,24.14
2022-08-07T20:13:42.330Z,24.02
2022-08-07T20:16:22.418Z,23.97
2022-08-07T20:19:00.399Z,23.79
2022-08-07T20:21:42.197Z,23.65
2022-08-07T20:24:31.562Z,23.45
2022-08-07T20:27:07.492Z,23.37
2022-08-07T20:29:47.752Z,23.22
2022-08-07T20:32:22.972Z,23.16
2022-08-07T20:34:56.935Z,23.08
2022-08-07T20:37:29.731Z,23.04
2022-08-07T20:40:02.958Z,23.02
2022-08-07T20:42:33.646Z,22.99
2022-08-07T20:45:04.334Z,23.04
2022-08-07T20:47:55.305Z,23.10
2022-08-07T20:50:22.609Z,23.16
2022-08-07T20:52:51.442Z,23.12
2022-08-07T20:55:25.488Z,23.10
2022-08-07T20:58:04.201Z,23.07
2022-08-07T21:00:46.414Z,23.08
2022-08-07T21:03:19.286Z,23.10
2022-08-07T21:06:03.835Z,23.11
2022-08-07T21:08:54.222Z,23.12
2022-08-07T21:11:40.151Z,23.07
2022-08-07T21:14:33.318Z,23.05
2022-08-07T21:18:03.478Z,22.93
2022-08-07T21:20:05.290Z,22.95
2022-08-07T21:22:44.930Z,22.86
2022-08-07T21:25:39.027Z,22.73
2022-08-07T21:28:49.992Z,22.69
2022-08-07T21:31:31.316Z,22.68
2022-08-07T21:34:20.642Z,22.63
2022-08-07T21:36:59.867Z,22.56
2022-08-07T21:39:46.202Z,22.53
2022-08-07T21:42:42.570Z,22.46
2022-08-07T21:46:08.413Z,22.40
2022-08-07T21:48:37.337Z,22.33
2022-08-07T21:51:27.797Z,22.21
2022-08-07T21:54:34.250Z,22.06
2022-08-07T21:57:39.953Z,22.02
2022-08-07T22:00:22.664Z,21.99
2022-08-07T22:03:30.567Z,21.88
2022-08-07T22:06:28.925Z,21.75
2022-08-07T22:09:02.925Z,21.65
2022-08-07T22:12:05.896Z,21.60
2022-08-07T22:14:36.219Z,21.52
2022-08-07T22:17:05.867Z,21.49
2022-08-07T22:19:50.912Z,21.44
2022-08-07T22:22:29.118Z,21.40
2022-08-07T22:25:08.392Z,21.38
2022-08-07T22:28:07.842Z,21.35
2022-08-07T22:30:40.652Z,21.33
2022-08-07T22:33:12.476Z,21.35
2022-08-07T22:36:07.541Z,21.30
2022-08-07T22:39:05.266Z,21.30
2022-08-07T22:42:03.521Z,21.32
2022-08-07T22:44:39.224Z,21.31
2022-08-07T22:47:32.905Z,21.31
2022-08-07T22:50:33.025Z,21.32
2022-08-07T22:54:05.492Z,21.29
2022-08-07T22:56:29.994Z,21.30
2022-08-07T22:59:27.025Z,21.29
2022-08-07T23:02:13.714Z,21.30
2022-08-07T23:04:58.252Z,21.30
2022-08-07T23:07:53.944Z,21.28
2022-08-07T23:10:42.573Z,21.27
2022-08-07T23:13:29.663Z,21.28
2022-08-07T23:16:46.785Z,21.23
2022-08-07T23:19:51.327Z,21.14
2022-08-07T23:22:39.923Z,21.11
2022-08-07T23:25:34.988Z,21.03
2022-08-07T23:28:22.142Z,20.94
2022-08-07T23:32:50.113Z,20.91
2022-08-07T23:34:37.558Z,20.90
2022-08-07T23:37:29.370Z,20.84
2022-08-07T23:40:03.062Z,20.80
2022-08-07T23:42:43.716Z,20.78
2022-08-07T23:45:33.091Z,20.75
2022-08-07T23:48:16.343Z,20.78
2022-08-07T23:50:48.651Z,20.79
2022-08-07T23:53:49.540Z,20.76
2022-08-07T23:56:34.964Z,20.73
